createdAt,value
2023-02-28T00:01:19.700Z,4.13
2023-02-28T00:03:46.631Z,4.20
2023-02-28T00:06:13.411Z,4.30
2023-02-28T00:08:40.446Z,3.77
2023-02-28T00:11:13.292Z,4.37
2023-02-28T00:13:43.441Z,4.60
2023-02-28T00:16:14.285Z,5.00
2023-02-28T00:18:41.606Z,5.37
2023-02-28T00:21:09.160Z,4.33
2023-02-28T00:23:36.573Z,5.07
2023-02-28T00:26:03.458Z,4.97
2023-02-28T00:28:30.412Z,4.87
2023-02-28T00:30:58.616Z,5.00
2023-02-28T00:33:25.468Z,3.60
2023-02-28T00:35:52.275Z,4.07
2023-02-28T00:38:19.053Z,4.10
2023-02-28T00:40:45.855Z,4.13
2023-02-28T00:43:12.675Z,6.70
2023-02-28T00:45:39.446Z,5.23
2023-02-28T00:48:07.153Z,5.03
2023-02-28T00:50:33.956Z,3.80
2023-02-28T00:53:00.745Z,3.47
2023-02-28T00:55:27.569Z,3.83
2023-02-28T00:57:54.369Z,3.60
2023-02-28T01:00:21.278Z,4.70
2023-02-28T01:02:48.141Z,5.23
2023-02-28T01:05:15.072Z,4.80
2023-02-28T01:07:41.856Z,4.93
2023-02-28T01:10:09.634Z,6.47
2023-02-28T01:12:36.404Z,7.00
2023-02-28T01:15:03.344Z,4.60
2023-02-28T01:17:30.102Z,5.03
2023-02-28T01:19:57.225Z,4.53
2023-02-28T01:22:24.034Z,4.57
2023-02-28T01:24:50.814Z,4.90
2023-02-28T01:27:17.600Z,5.10
2023-02-28T01:29:44.439Z,4.30
2023-02-28T01:32:11.362Z,4.20
2023-02-28T01:34:38.186Z,5.43
2023-02-28T01:37:05.307Z,4.47
2023-02-28T01:39:32.111Z,5.27
2023-02-28T01:41:58.952Z,5.00
2023-02-28T01:45:01.932Z,5.37
2023-02-28T01:47:41.605Z,4.20
2023-02-28T01:50:23.106Z,4.93
2023-02-28T01:52:51.589Z,5.37
2023-02-28T01:55:21.193Z,5.00
2023-02-28T01:57:52.284Z,5.13
2023-02-28T02:00:24.080Z,5.00
2023-02-28T02:02:54.901Z,5.17
2023-02-28T02:05:25.082Z,5.10
2023-02-28T02:07:56.585Z,6.63
2023-02-28T02:10:31.871Z,5.60
2023-02-28T02:13:23.320Z,5.23
2023-02-28T02:16:05.158Z,5.53
2023-02-28T02:19:02.984Z,5.80
2023-02-28T02:21:41.781Z,6.67
2023-02-28T02:24:20.354Z,5.50
2023-02-28T02:27:19.928Z,5.00
2023-02-28T02:30:16.706Z,5.70
2023-02-28T02:33:04.581Z,5.10
2023-02-28T02:36:10.200Z,5.50
2023-02-28T02:38:45.368Z,5.70
2023-02-28T02:41:28.632Z,8.57
2023-02-28T02:44:39.629Z,5.20
2023-02-28T02:47:11.395Z,5.70
2023-02-28T02:49:41.865Z,5.60
2023-02-28T02:52:13.253Z,5.13
2023-02-28T02:54:44.220Z,5.90
2023-02-28T02:57:16.993Z,6.33
2023-02-28T02:59:45.010Z,5.40
2023-02-28T03:02:15.824Z,5.33
2023-02-28T03:04:52.586Z,5.27
2023-02-28T03:07:19.298Z,6.23
2023-02-28T03:09:53.953Z,5.50
2023-02-28T03:12:24.506Z,5.60
2023-02-28T03:15:20.945Z,5.83
2023-02-28T03:17:59.667Z,5.30
2023-02-28T03:20:40.916Z,5.40
2023-02-28T03:23:22.661Z,5.80
2023-02-28T03:26:07.503Z,5.60
2023-02-28T03:29:13.936Z,4.80
2023-02-28T03:31:49.431Z,6.53
2023-02-28T03:34:26.788Z,6.50
2023-02-28T03:37:02.870Z,5.87
2023-02-28T03:39:37.062Z,6.00
2023-02-28T03:42:10.726Z,5.60
2023-02-28T03:44:44.179Z,5.80
2023-02-28T03:47:26.206Z,5.60
2023-02-28T03:50:17.454Z,6.10
2023-02-28T03:53:02.036Z,7.23
2023-02-28T03:56:13.780Z,5.60
2023-02-28T03:59:07.819Z,6.07
2023-02-28T04:01:36.888Z,6.23
2023-02-28T04:04:04.534Z,6.00
2023-02-28T04:06:33.424Z,5.93
2023-02-28T04:09:01.052Z,6.97
2023-02-28T04:11:53.170Z,6.73
2023-02-28T04:14:20.227Z,6.60
2023-02-28T04:16:46.998Z,6.10
2023-02-28T04:19:15.370Z,6.30
2023-02-28T04:21:50.452Z,6.60
2023-02-28T04:24:20.931Z,6.57
2023-02-28T04:26:50.663Z,6.80
2023-02-28T04:29:26.964Z,6.63
2023-02-28T04:31:54.932Z,6.47
2023-02-28T04:34:22.326Z,6.70
2023-02-28T04:37:10.366Z,6.40
2023-02-28T04:39:39.845Z,7.00
2023-02-28T04:42:07.049Z,5.70
2023-02-28T04:44:33.824Z,6.40
2023-02-28T04:47:00.706Z,6.33
2023-02-28T04:49:27.577Z,6.37
2023-02-28T04:51:54.340Z,6.57
2023-02-28T04:54:21.231Z,7.00
2023-02-28T04:56:50.718Z,6.57
2023-02-28T04:59:18.178Z,7.10
2023-02-28T05:01:49.292Z,7.03
2023-02-28T05:04:16.588Z,6.90
2023-02-28T05:06:43.646Z,6.53
2023-02-28T05:09:12.435Z,6.80
2023-02-28T05:11:40.093Z,6.07
2023-02-28T05:14:12.568Z,6.67
2023-02-28T05:16:39.895Z,7.20
2023-02-28T05:19:06.856Z,7.77
2023-02-28T05:21:42.033Z,6.97
2023-02-28T05:24:12.285Z,8.00
2023-02-28T05:26:42.363Z,7.73
2023-02-28T05:29:09.839Z,7.00
2023-02-28T05:31:37.524Z,6.80
2023-02-28T05:34:07.251Z,7.53
2023-02-28T05:36:34.567Z,8.00
2023-02-28T05:39:01.357Z,7.53
2023-02-28T05:41:28.685Z,7.80
2023-02-28T05:43:55.865Z,8.07
2023-02-28T05:46:22.776Z,7.80
2023-02-28T05:48:50.041Z,7.57
2023-02-28T05:51:17.441Z,7.70
2023-02-28T05:53:44.424Z,7.00
2023-02-28T05:56:11.136Z,8.33
2023-02-28T05:58:37.882Z,8.23
2023-02-28T06:01:21.666Z,7.90
2023-02-28T06:03:48.412Z,7.83
2023-02-28T06:06:15.190Z,8.50
2023-02-28T06:08:44.293Z,8.17
2023-02-28T06:11:11.002Z,7.57
2023-02-28T06:13:37.807Z,7.97
2023-02-28T06:16:04.761Z,8.90
2023-02-28T06:18:31.601Z,7.63
2023-02-28T06:20:58.357Z,8.33
2023-02-28T06:23:25.404Z,8.13
2023-02-28T06:25:53.888Z,8.67
2023-02-28T06:28:20.840Z,8.20
2023-02-28T06:30:47.526Z,8.47
2023-02-28T06:33:14.254Z,7.70
2023-02-28T06:35:41.314Z,8.40
2023-02-28T06:38:08.070Z,9.63
2023-02-28T06:40:36.665Z,8.37
2023-02-28T06:43:04.173Z,8.60
2023-02-28T06:45:31.013Z,9.13
2023-02-28T06:47:57.836Z,8.60
2023-02-28T06:50:24.612Z,10.07
2023-02-28T06:52:54.947Z,10.20
2023-02-28T06:55:21.783Z,8.80
2023-02-28T06:57:48.806Z,8.17
2023-02-28T07:00:16.054Z,9.53
2023-02-28T07:02:42.830Z,9.60
2023-02-28T07:05:09.745Z,9.97
2023-02-28T07:07:39.094Z,10.17
2023-02-28T07:10:06.335Z,9.67
2023-02-28T07:12:33.566Z,10.57
2023-02-28T07:15:00.326Z,8.80
2023-02-28T07:17:27.093Z,9.00
2023-02-28T07:19:53.777Z,9.53
2023-02-28T07:22:20.562Z,8.80
2023-02-28T07:24:47.459Z,9.43
2023-02-28T07:27:24.597Z,9.60
2023-02-28T07:29:51.972Z,9.77
2023-02-28T07:32:19.676Z,9.73
2023-02-28T07:34:47.053Z,9.10
2023-02-28T07:37:13.899Z,8.87
2023-02-28T07:39:43.163Z,9.13
2023-02-28T07:42:12.739Z,9.07
2023-02-28T07:44:43.546Z,9.63
2023-02-28T07:47:11.416Z,9.37
2023-02-28T07:49:38.829Z,9.97
2023-02-28T07:52:10.416Z,10.17
2023-02-28T07:54:38.697Z,9.27
2023-02-28T07:57:05.418Z,9.77
2023-02-28T07:59:32.467Z,9.07
2023-02-28T08:02:00.251Z,10.27
2023-02-28T08:04:27.383Z,11.00
2023-02-28T08:06:54.355Z,10.60
2023-02-28T08:09:21.498Z,16.03
2023-02-28T08:11:48.338Z,10.30
2023-02-28T08:14:15.237Z,10.00
2023-02-28T08:16:42.037Z,9.37
2023-02-28T08:19:08.777Z,9.80
2023-02-28T08:21:35.961Z,10.00
2023-02-28T08:24:02.715Z,11.00
2023-02-28T08:26:29.431Z,11.63
2023-02-28T08:28:57.490Z,11.63
2023-02-28T08:31:25.285Z,10.63
2023-02-28T08:33:53.894Z,11.43
2023-02-28T08:36:20.945Z,11.50
2023-02-28T08:38:47.794Z,10.50
2023-02-28T08:41:14.660Z,11.53
2023-02-28T08:43:42.052Z,12.03
2023-02-28T08:46:11.540Z,9.93
2023-02-28T08:48:41.529Z,10.60
2023-02-28T08:51:22.451Z,12.20
2023-02-28T08:53:51.858Z,11.27
2023-02-28T08:56:18.921Z,10.90
2023-02-28T08:58:47.754Z,11.87
2023-02-28T09:01:15.959Z,10.83
2023-02-28T09:03:43.237Z,11.63
2023-02-28T09:06:11.390Z,12.50
2023-02-28T09:08:38.309Z,11.97
2023-02-28T09:11:05.653Z,9.27
2023-02-28T09:13:33.659Z,12.10
2023-02-28T09:16:03.068Z,12.07
2023-02-28T09:18:29.986Z,12.27
2023-02-28T09:20:57.364Z,11.10
2023-02-28T09:23:24.468Z,11.10
2023-02-28T09:25:53.863Z,12.23
2023-02-28T09:28:21.462Z,31.43
2023-02-28T09:30:51.151Z,13.70
2023-02-28T09:33:20.705Z,11.30
2023-02-28T09:35:51.188Z,12.27
2023-02-28T09:38:19.009Z,12.47
2023-02-28T09:40:53.800Z,10.60
2023-02-28T09:43:26.236Z,12.87
2023-02-28T09:46:19.140Z,11.77
2023-02-28T09:48:49.268Z,12.20
2023-02-28T09:51:36.265Z,12.40
2023-02-28T09:54:03.626Z,13.13
2023-02-28T09:56:42.884Z,13.20
2023-02-28T09:59:19.094Z,12.43
2023-02-28T10:02:00.233Z,12.20
2023-02-28T10:04:53.634Z,11.77
2023-02-28T10:07:45.423Z,10.97
2023-02-28T10:10:25.467Z,12.07
2023-02-28T10:12:55.946Z,12.70
2023-02-28T10:15:27.360Z,11.90
2023-02-28T10:18:08.769Z,11.67
2023-02-28T10:20:41.022Z,12.20
2023-02-28T10:23:10.956Z,12.40
2023-02-28T10:25:39.639Z,12.27
2023-02-28T10:28:11.167Z,12.50
2023-02-28T10:30:50.608Z,12.80
2023-02-28T10:33:35.201Z,12.57
2023-02-28T10:36:03.233Z,12.50
2023-02-28T10:38:36.045Z,13.83
2023-02-28T10:41:11.482Z,12.60
2023-02-28T10:43:40.477Z,13.03
2023-02-28T10:46:10.054Z,12.67
2023-02-28T10:48:46.321Z,13.40
2023-02-28T10:51:15.203Z,12.17
2023-02-28T10:54:00.130Z,11.43
2023-02-28T10:56:28.447Z,12.73
2023-02-28T10:58:57.212Z,12.83
2023-02-28T11:01:34.151Z,13.57
2023-02-28T11:04:01.223Z,11.83
2023-02-28T11:06:34.703Z,11.37
2023-02-28T11:09:33.342Z,13.20
2023-02-28T11:12:00.949Z,12.70
2023-02-28T11:14:31.151Z,13.30
2023-02-28T11:17:04.316Z,11.97
2023-02-28T11:19:47.792Z,12.70
2023-02-28T11:22:21.735Z,12.80
2023-02-28T11:24:53.028Z,10.80
2023-02-28T11:27:26.969Z,11.57
2023-02-28T11:29:54.103Z,13.30
2023-02-28T11:32:24.297Z,11.30
2023-02-28T12:09:03.837Z,10.90
2023-02-28T12:11:41.835Z,11.50
2023-02-28T12:14:42.690Z,11.40
2023-02-28T12:17:12.289Z,9.67
2023-02-28T12:19:42.705Z,10.73
2023-02-28T12:22:18.580Z,12.50
2023-02-28T12:24:51.709Z,11.90
2023-02-28T12:27:23.008Z,11.87
2023-02-28T12:30:03.968Z,10.63
2023-02-28T12:32:43.519Z,11.27
2023-02-28T12:35:10.234Z,9.10
2023-02-28T12:38:07.619Z,10.93
2023-02-28T12:41:13.804Z,10.20
2023-02-28T12:43:48.580Z,9.53
2023-02-28T12:46:26.573Z,11.00
2023-02-28T12:48:59.832Z,11.87
2023-02-28T12:51:28.230Z,10.70
2023-02-28T12:54:14.276Z,11.07
2023-02-28T12:57:19.145Z,11.40
2023-02-28T12:59:52.027Z,10.90
2023-02-28T13:02:33.781Z,10.53
2023-02-28T13:05:03.660Z,10.43
2023-02-28T13:07:42.371Z,9.77
2023-02-28T13:10:11.306Z,11.00
2023-02-28T13:12:51.635Z,11.23
2023-02-28T13:15:26.306Z,10.97
2023-02-28T13:17:56.020Z,11.53
2023-02-28T13:20:38.272Z,10.80
2023-02-28T13:23:25.181Z,10.77
2023-02-28T13:25:54.619Z,10.13
2023-02-28T13:28:49.251Z,10.93
2023-02-28T13:31:16.529Z,10.13
2023-02-28T13:33:58.437Z,8.73
2023-02-28T13:36:31.544Z,9.73
2023-02-28T13:39:05.097Z,10.90
2023-02-28T13:41:32.221Z,9.93
2023-02-28T13:44:19.038Z,10.80
2023-02-28T13:46:48.529Z,9.03
2023-02-28T13:49:24.306Z,9.87
2023-02-28T13:52:07.477Z,10.83
2023-02-28T13:54:40.214Z,9.67
2023-02-28T13:57:12.765Z,8.37
2023-02-28T14:00:06.529Z,9.40
2023-02-28T14:03:02.692Z,9.60
2023-02-28T14:05:32.467Z,10.83
2023-02-28T14:08:05.640Z,12.23
2023-02-28T14:10:38.181Z,10.70
2023-02-28T14:13:31.965Z,11.33
2023-02-28T14:16:04.509Z,10.20
2023-02-28T14:18:41.388Z,12.70
2023-02-28T14:21:14.193Z,10.90
2023-02-28T14:23:47.349Z,11.03
2023-02-28T14:26:52.524Z,8.60
2023-02-28T14:29:38.731Z,9.73
2023-02-28T14:32:11.819Z,10.00
2023-02-28T14:37:34.743Z,11.07
2023-02-28T14:40:02.929Z,10.63
2023-02-28T14:42:35.205Z,10.17
2023-02-28T14:45:02.805Z,10.57
2023-02-28T14:47:33.317Z,12.03
2023-02-28T14:50:01.753Z,10.30
2023-02-28T14:52:30.760Z,10.57
2023-02-28T14:55:04.230Z,10.87
2023-02-28T14:57:33.468Z,10.90
2023-02-28T15:00:12.840Z,10.50
2023-02-28T15:02:40.694Z,11.33
2023-02-28T15:05:13.498Z,11.10
2023-02-28T15:07:40.990Z,12.20
2023-02-28T15:10:27.843Z,9.73
2023-02-28T15:12:57.376Z,10.90
2023-02-28T15:16:01.904Z,11.90
2023-02-28T15:18:41.337Z,11.67
2023-02-28T15:21:15.565Z,10.60
2023-02-28T15:23:46.961Z,12.13
2023-02-28T15:26:18.184Z,11.60
2023-02-28T15:28:45.810Z,11.13
2023-02-28T15:31:27.325Z,10.93
2023-02-28T15:33:57.196Z,11.73
2023-02-28T15:36:29.987Z,11.07
2023-02-28T15:39:01.544Z,11.60
2023-02-28T15:41:41.720Z,12.27
2023-02-28T15:44:30.761Z,11.60
2023-02-28T15:47:04.829Z,13.40
2023-02-28T15:49:57.098Z,11.27
2023-02-28T15:52:38.675Z,12.63
2023-02-28T15:55:13.591Z,11.23
2023-02-28T15:57:42.031Z,11.03
2023-02-28T16:00:14.894Z,11.57
2023-02-28T16:02:41.867Z,11.63
2023-02-28T16:05:08.628Z,11.33
2023-02-28T16:07:44.992Z,11.47
2023-02-28T16:10:15.078Z,10.83
2023-02-28T16:12:42.949Z,12.17
2023-02-28T16:15:22.464Z,11.63
2023-02-28T16:17:49.980Z,10.77
2023-02-28T16:20:30.192Z,11.73
2023-02-28T16:22:57.427Z,10.80
2023-02-28T16:25:34.674Z,12.13
2023-02-28T16:28:02.022Z,12.03
2023-02-28T16:30:32.513Z,12.70
2023-02-28T16:32:59.648Z,13.83
2023-02-28T16:35:26.718Z,11.57
2023-02-28T16:37:54.905Z,10.80
2023-02-28T16:40:26.707Z,10.60
2023-02-28T16:42:56.733Z,11.03
2023-02-28T16:45:26.123Z,12.50
2023-02-28T16:47:53.522Z,12.40
2023-02-28T16:50:23.484Z,13.47
2023-02-28T16:52:53.227Z,11.60
2023-02-28T16:55:20.282Z,12.10
2023-02-28T16:57:55.396Z,12.37
2023-02-28T17:00:23.018Z,13.03
2023-02-28T17:02:49.882Z,11.80
2023-02-28T17:05:17.016Z,12.10
2023-02-28T17:07:44.459Z,13.90
2023-02-28T17:10:26.323Z,12.40
2023-02-28T17:12:54.998Z,13.10
2023-02-28T17:15:23.423Z,13.90
2023-02-28T17:17:50.934Z,12.47
2023-02-28T17:20:23.441Z,14.07
2023-02-28T17:22:54.792Z,14.07
2023-02-28T17:25:21.916Z,12.80
2023-02-28T17:27:48.737Z,14.00
2023-02-28T17:30:19.777Z,14.87
2023-02-28T17:32:46.984Z,14.63
2023-02-28T17:35:14.426Z,19.37
2023-02-28T17:37:41.441Z,23.90
2023-02-28T17:40:15.712Z,21.30
2023-02-28T17:42:43.078Z,19.30
2023-02-28T17:45:10.461Z,17.03
2023-02-28T17:47:37.449Z,15.40
2023-02-28T17:50:04.857Z,16.07
2023-02-28T17:52:31.985Z,16.60
2023-02-28T17:54:59.208Z,16.00
2023-02-28T17:57:25.877Z,16.90
2023-02-28T17:59:52.628Z,16.07
2023-02-28T18:02:19.409Z,15.90
2023-02-28T18:04:46.154Z,15.37
2023-02-28T18:07:13.242Z,16.53
2023-02-28T18:09:40.056Z,16.33
2023-02-28T18:12:06.874Z,18.03
2023-02-28T18:14:33.580Z,24.17
2023-02-28T18:17:00.447Z,28.03
2023-02-28T18:19:27.223Z,21.60
2023-02-28T18:21:54.887Z,18.30
2023-02-28T18:24:24.364Z,16.73
2023-02-28T18:26:51.627Z,18.00
2023-02-28T18:29:22.938Z,19.80
2023-02-28T18:31:50.554Z,17.20
2023-02-28T18:34:17.614Z,18.40
2023-02-28T18:36:47.105Z,17.90
2023-02-28T18:39:16.846Z,20.63
2023-02-28T18:41:43.749Z,18.20
2023-02-28T18:44:19.944Z,18.40
2023-02-28T18:46:48.838Z,17.87
2023-02-28T18:49:15.868Z,18.77
2023-02-28T18:51:46.676Z,19.57
2023-02-28T18:54:15.305Z,18.33
2023-02-28T18:56:42.491Z,19.17
2023-02-28T18:59:10.564Z,17.63
2023-02-28T19:01:37.532Z,19.03
2023-02-28T19:04:05.346Z,18.57
2023-02-28T19:06:33.656Z,18.53
2023-02-28T19:09:02.420Z,18.03
2023-02-28T19:11:29.766Z,19.03
2023-02-28T19:13:57.334Z,19.60
2023-02-28T19:16:24.773Z,20.17
2023-02-28T19:18:51.972Z,19.03
2023-02-28T19:21:20.917Z,18.83
2023-02-28T19:23:48.474Z,19.33
2023-02-28T19:26:20.967Z,20.20
2023-02-28T19:28:48.354Z,20.77
2023-02-28T19:31:19.947Z,18.70
2023-02-28T19:33:46.859Z,19.33
2023-02-28T19:36:15.410Z,20.00
2023-02-28T19:38:44.487Z,20.60
2023-02-28T19:41:13.062Z,18.97
2023-02-28T19:43:40.020Z,19.17
2023-02-28T19:46:09.590Z,20.43
2023-02-28T19:48:36.900Z,19.77
2023-02-28T19:51:11.660Z,20.67
2023-02-28T19:53:40.285Z,19.03
2023-02-28T19:56:08.462Z,19.83
2023-02-28T19:58:36.172Z,21.20
2023-02-28T20:01:16.848Z,20.57
2023-02-28T20:03:47.961Z,21.30
2023-02-28T20:06:15.298Z,20.17
2023-02-28T20:08:42.529Z,20.30
2023-02-28T20:11:12.954Z,19.30
2023-02-28T20:13:39.860Z,21.07
2023-02-28T20:16:10.184Z,20.03
2023-02-28T20:18:39.165Z,20.10
2023-02-28T20:21:09.132Z,19.83
2023-02-28T20:23:38.267Z,20.27
2023-02-28T20:26:05.382Z,21.43
2023-02-28T20:28:32.556Z,20.27
2023-02-28T20:31:00.751Z,20.83
2023-02-28T20:33:28.131Z,19.60
2023-02-28T20:36:02.314Z,20.37
2023-02-28T20:38:29.861Z,20.37
2023-02-28T20:41:01.136Z,19.17
2023-02-28T20:43:28.799Z,19.80
2023-02-28T20:46:01.838Z,20.23
2023-02-28T20:48:30.740Z,21.67
2023-02-28T20:50:59.369Z,21.27
2023-02-28T20:53:28.786Z,20.30
2023-02-28T20:56:00.735Z,19.97
2023-02-28T20:58:30.456Z,20.70
2023-02-28T21:01:18.432Z,20.40
2023-02-28T21:03:50.480Z,20.17
2023-02-28T21:06:19.547Z,20.37
2023-02-28T21:08:46.676Z,21.20
2023-02-28T21:11:18.578Z,20.20
2023-02-28T21:13:46.743Z,20.77
2023-02-28T21:16:17.501Z,21.93
2023-02-28T21:18:44.954Z,20.73
2023-02-28T21:21:14.943Z,20.90
2023-02-28T21:23:42.776Z,21.93
2023-02-28T21:26:12.413Z,20.60
2023-02-28T21:28:44.042Z,22.27
2023-02-28T21:31:14.672Z,20.47
2023-02-28T21:33:41.650Z,20.70
2023-02-28T21:36:12.172Z,22.13
2023-02-28T21:38:40.643Z,20.60
2023-02-28T21:41:08.347Z,22.30
2023-02-28T21:43:35.509Z,19.80
2023-02-28T21:46:08.145Z,22.30
2023-02-28T21:48:35.791Z,21.33
2023-02-28T21:51:06.599Z,20.53
2023-02-28T21:53:35.616Z,20.30
2023-02-28T21:56:08.179Z,20.67
2023-02-28T21:58:34.912Z,21.30
2023-02-28T22:01:12.991Z,21.33
2023-02-28T22:03:40.409Z,21.07
2023-02-28T22:06:19.569Z,20.70
2023-02-28T22:08:49.496Z,20.87
2023-02-28T22:11:17.135Z,20.07
2023-02-28T22:13:45.109Z,21.43
2023-02-28T22:16:14.355Z,19.57
2023-02-28T22:18:41.997Z,21.03
2023-02-28T22:21:10.507Z,21.63
2023-02-28T22:23:38.927Z,21.93
2023-02-28T22:26:08.050Z,21.20
2023-02-28T22:28:36.162Z,21.10
2023-02-28T22:31:13.979Z,21.77
2023-02-28T22:33:41.114Z,21.70
2023-02-28T22:36:08.933Z,21.13
2023-02-28T22:38:35.872Z,21.23
2023-02-28T22:41:04.437Z,21.80
2023-02-28T22:43:31.509Z,23.23
2023-02-28T22:46:03.655Z,22.43
2023-02-28T22:48:30.744Z,24.80
2023-02-28T22:51:06.779Z,23.70
2023-02-28T22:53:35.586Z,23.80
2023-02-28T22:56:02.939Z,24.73
2023-02-28T22:58:30.377Z,23.13
2023-02-28T23:01:04.787Z,24.73
2023-02-28T23:03:31.651Z,24.77
2023-02-28T23:05:58.433Z,23.80
2023-02-28T23:08:25.352Z,23.80
2023-02-28T23:10:52.820Z,21.43
2023-02-28T23:13:20.251Z,24.30
2023-02-28T23:15:47.797Z,24.50
2023-02-28T23:18:15.650Z,23.43
2023-02-28T23:20:42.470Z,22.17
2023-02-28T23:23:10.251Z,22.43
2023-02-28T23:25:40.570Z,23.87
2023-02-28T23:28:10.135Z,22.47
2023-02-28T23:30:38.638Z,21.67
2023-02-28T23:33:08.500Z,21.30
2023-02-28T23:35:35.337Z,21.47
2023-02-28T23:38:02.313Z,21.27
2023-02-28T23:40:29.046Z,22.40
2023-02-28T23:42:56.023Z,21.23
2023-02-28T23:45:22.874Z,24.10
2023-02-28T23:47:49.561Z,21.60
2023-02-28T23:50:16.626Z,21.10
2023-02-28T23:52:43.677Z,21.27
2023-02-28T23:55:10.854Z,21.97
2023-02-28T23:57:37.633Z,19.23
